createdAt,value
2019-04-29T00:02:28.892Z,3.70
2019-04-29T00:04:57.624Z,3.33
2019-04-29T00:07:26.461Z,3.42
2019-04-29T00:09:55.201Z,3.60
2019-04-29T00:12:24.002Z,3.52
2019-04-29T00:14:56.750Z,3.20
2019-04-29T00:17:27.120Z,3.60
2019-04-29T00:19:59.925Z,2.90
2019-04-29T00:22:28.825Z,3.20
2019-04-29T00:24:57.495Z,3.45
2019-04-29T00:27:26.156Z,3.50
2019-04-29T00:29:54.896Z,3.45
2019-04-29T00:32:23.628Z,3.08
2019-04-29T00:34:52.301Z,3.35
2019-04-29T00:37:38.590Z,3.45
2019-04-29T00:40:09.065Z,4.42
2019-04-29T00:42:42.359Z,3.65
2019-04-29T00:45:11.114Z,3.17
2019-04-29T00:47:39.787Z,3.30
2019-04-29T00:50:08.597Z,3.25
2019-04-29T00:52:37.337Z,3.40
2019-04-29T00:55:13.785Z,3.12
2019-04-29T00:57:42.520Z,3.45
2019-04-29T01:00:13.193Z,3.52
2019-04-29T01:02:42.036Z,3.85
2019-04-29T01:05:10.869Z,3.67
2019-04-29T01:07:39.536Z,3.20
2019-04-29T01:10:08.572Z,3.47
2019-04-29T01:12:37.519Z,3.50
2019-04-29T01:15:06.850Z,3.60
2019-04-29T01:17:35.589Z,3.30
2019-04-29T01:20:06.425Z,3.67
2019-04-29T01:22:35.166Z,4.08
2019-04-29T01:25:05.165Z,3.30
2019-04-29T01:27:35.540Z,3.47
2019-04-29T01:30:06.145Z,3.27
2019-04-29T01:32:36.762Z,3.08
2019-04-29T01:35:06.968Z,3.75
2019-04-29T01:37:40.316Z,2.75
2019-04-29T01:40:27.100Z,3.50
2019-04-29T01:42:55.773Z,3.70
2019-04-29T01:45:24.498Z,3.27
2019-04-29T01:47:53.239Z,3.10
2019-04-29T01:50:21.904Z,3.58
2019-04-29T01:52:50.576Z,3.27
2019-04-29T01:55:19.251Z,3.60
2019-04-29T01:57:47.986Z,4.30
2019-04-29T02:00:17.898Z,3.35
2019-04-29T02:02:46.629Z,3.58
2019-04-29T02:05:15.296Z,3.45
2019-04-29T02:07:44.037Z,3.35
2019-04-29T02:10:17.213Z,3.25
2019-04-29T02:12:45.878Z,3.27
2019-04-29T02:15:14.784Z,3.55
2019-04-29T02:17:43.524Z,3.47
2019-04-29T02:20:12.356Z,3.58
2019-04-29T02:22:42.734Z,3.42
2019-04-29T02:25:13.109Z,3.60
2019-04-29T02:27:41.859Z,2.70
2019-04-29T02:30:11.357Z,3.27
2019-04-29T02:32:40.092Z,3.45
2019-04-29T02:35:08.761Z,3.37
2019-04-29T02:37:39.061Z,3.20
2019-04-29T02:40:09.447Z,3.22
2019-04-29T02:42:46.457Z,3.05
2019-04-29T02:45:17.484Z,3.25
2019-04-29T02:50:14.395Z,3.58
2019-04-29T02:52:43.061Z,3.80
2019-04-29T02:55:14.033Z,3.27
2019-04-29T03:00:26.134Z,3.72
2019-04-29T03:03:08.245Z,3.50
2019-04-29T03:05:41.700Z,3.30
2019-04-29T03:08:10.437Z,3.90
2019-04-29T03:10:39.170Z,3.15
2019-04-29T03:13:07.847Z,3.83
2019-04-29T03:15:39.506Z,3.33
2019-04-29T03:18:08.246Z,3.37
2019-04-29T03:20:50.482Z,3.37
2019-04-29T03:23:20.851Z,3.72
2019-04-29T03:25:49.585Z,3.85
2019-04-29T03:28:18.209Z,3.80
2019-04-29T03:30:46.927Z,3.77
2019-04-29T03:33:15.677Z,3.35
2019-04-29T03:35:44.404Z,3.15
2019-04-29T03:38:13.108Z,3.80
2019-04-29T03:40:41.830Z,3.85
2019-04-29T03:43:10.549Z,3.65
2019-04-29T03:45:39.293Z,4.00
2019-04-29T03:48:07.982Z,3.50
2019-04-29T03:50:36.707Z,4.00
2019-04-29T03:53:05.379Z,3.72
2019-04-29T03:55:40.107Z,3.50
2019-04-29T03:58:04.420Z,3.05
2019-04-29T04:00:33.340Z,3.67
2019-04-29T04:03:09.069Z,3.83
2019-04-29T04:05:51.222Z,4.65
2019-04-29T04:08:30.054Z,3.67
2019-04-29T04:10:58.793Z,3.83
2019-04-29T04:13:27.398Z,3.62
2019-04-29T04:15:56.131Z,4.03
2019-04-29T04:18:29.349Z,3.83
2019-04-29T04:20:58.077Z,3.65
2019-04-29T04:23:26.666Z,3.52
2019-04-29T04:25:55.409Z,3.67
2019-04-29T04:28:24.074Z,3.98
2019-04-29T04:30:52.808Z,3.77
2019-04-29T04:33:21.411Z,3.70
2019-04-29T04:35:50.145Z,3.50
2019-04-29T04:38:18.809Z,4.20
2019-04-29T04:40:49.188Z,4.00
2019-04-29T04:43:17.789Z,2.92
2019-04-29T04:45:46.525Z,3.72
2019-04-29T04:48:15.129Z,3.98
2019-04-29T04:50:43.870Z,3.72
2019-04-29T04:53:12.546Z,3.92
2019-04-29T04:55:42.916Z,4.28
2019-04-29T04:58:11.588Z,3.15
2019-04-29T05:00:40.394Z,4.37
2019-04-29T05:03:09.010Z,3.98
2019-04-29T05:05:37.673Z,4.00
2019-04-29T05:08:06.264Z,3.30
2019-04-29T05:10:34.937Z,3.72
2019-04-29T05:13:03.626Z,3.40
2019-04-29T05:15:32.365Z,4.05
2019-04-29T05:18:00.972Z,3.80
2019-04-29T05:20:29.732Z,3.65
2019-04-29T05:23:01.089Z,4.10
2019-04-29T05:25:31.250Z,4.03
2019-04-29T05:28:00.293Z,3.70
2019-04-29T05:30:29.144Z,4.22
2019-04-29T05:32:57.885Z,4.53
2019-04-29T05:35:31.269Z,4.45
2019-04-29T05:38:04.514Z,3.98
2019-04-29T05:40:46.809Z,4.33
2019-04-29T05:43:17.208Z,4.67
2019-04-29T05:45:50.425Z,4.22
2019-04-29T05:48:20.337Z,4.78
2019-04-29T05:50:52.203Z,5.17
2019-04-29T05:53:22.752Z,3.58
2019-04-29T05:55:52.631Z,3.85
2019-04-29T05:58:21.441Z,3.67
2019-04-29T06:00:51.688Z,3.22
2019-04-29T06:03:20.496Z,4.70
2019-04-29T06:05:49.039Z,4.72
2019-04-29T06:08:17.716Z,4.97
2019-04-29T06:10:46.389Z,4.22
2019-04-29T06:13:15.153Z,4.15
2019-04-29T06:15:43.753Z,4.22
2019-04-29T06:18:12.497Z,3.95
2019-04-29T06:20:41.162Z,3.77
2019-04-29T06:23:09.852Z,3.75
2019-04-29T06:25:38.455Z,4.45
2019-04-29T06:28:07.202Z,3.87
2019-04-29T06:30:38.720Z,4.25
2019-04-29T06:33:06.329Z,5.20
2019-04-29T06:35:34.992Z,4.00
2019-04-29T06:38:03.751Z,3.77
2019-04-29T06:40:35.411Z,3.90
2019-04-29T06:43:02.736Z,4.28
2019-04-29T06:45:31.423Z,3.67
2019-04-29T06:48:00.166Z,4.85
2019-04-29T06:50:28.884Z,4.25
2019-04-29T06:52:57.629Z,3.58
2019-04-29T06:55:26.301Z,8.30
2019-04-29T06:57:55.045Z,5.70
2019-04-29T07:00:24.036Z,4.67
2019-04-29T07:02:52.658Z,3.72
2019-04-29T07:05:21.406Z,4.47
2019-04-29T07:07:50.005Z,3.70
2019-04-29T07:10:21.804Z,3.60
2019-04-29T07:12:49.002Z,3.98
2019-04-29T07:15:17.740Z,5.97
2019-04-29T07:17:46.430Z,3.77
2019-04-29T07:20:15.373Z,5.10
2019-04-29T07:22:44.048Z,3.77
2019-04-29T07:25:12.888Z,5.03
2019-04-29T07:27:44.199Z,4.35
2019-04-29T07:30:12.084Z,4.35
2019-04-29T07:32:41.980Z,4.08
2019-04-29T07:35:11.534Z,4.42
2019-04-29T07:37:40.238Z,4.62
2019-04-29T07:40:09.465Z,4.65
2019-04-29T07:42:38.251Z,3.92
2019-04-29T07:45:18.001Z,4.17
2019-04-29T07:47:56.212Z,4.55
2019-04-29T07:50:22.307Z,4.37
2019-04-29T07:52:49.982Z,4.33
2019-04-29T07:55:19.333Z,5.17
2019-04-29T07:57:52.199Z,4.50
2019-04-29T08:00:22.085Z,4.42
2019-04-29T08:02:50.924Z,5.65
2019-04-29T08:05:19.669Z,4.00
2019-04-29T08:07:48.585Z,4.60
2019-04-29T08:10:23.524Z,4.87
2019-04-29T08:12:50.028Z,4.10
2019-04-29T08:15:18.768Z,4.08
2019-04-29T08:17:47.372Z,5.50
2019-04-29T08:20:17.721Z,4.50
2019-04-29T08:22:46.473Z,4.42
2019-04-29T08:25:15.208Z,3.98
2019-04-29T08:27:44.032Z,4.72
2019-04-29T08:30:12.869Z,4.65
2019-04-29T08:32:41.606Z,4.20
2019-04-29T08:35:10.363Z,4.67
2019-04-29T08:37:39.105Z,4.92
2019-04-29T08:40:15.982Z,4.22
2019-04-29T08:45:34.723Z,4.80
2019-04-29T08:48:02.992Z,4.33
2019-04-29T08:50:31.669Z,5.12
2019-04-29T08:53:00.265Z,4.62
2019-04-29T08:55:30.984Z,4.70
2019-04-29T08:57:59.252Z,4.78
2019-04-29T09:00:28.073Z,4.62
2019-04-29T09:02:56.749Z,4.45
2019-04-29T09:05:25.421Z,4.10
2019-04-29T09:07:57.294Z,3.83
2019-04-29T09:10:24.445Z,3.92
2019-04-29T09:12:53.189Z,4.50
2019-04-29T09:15:21.934Z,4.47
2019-04-29T09:17:50.676Z,4.83
2019-04-29T09:20:19.518Z,4.42
2019-04-29T09:22:49.897Z,4.10
2019-04-29T09:25:26.247Z,3.70
2019-04-29T09:27:56.769Z,4.40
2019-04-29T09:30:25.508Z,3.85
2019-04-29T09:32:54.186Z,4.10
2019-04-29T09:35:22.924Z,4.22
2019-04-29T09:37:53.835Z,4.08
2019-04-29T09:40:23.614Z,3.87
2019-04-29T09:43:14.853Z,3.80
2019-04-29T09:45:34.941Z,3.50
2019-04-29T09:48:03.684Z,3.65
2019-04-29T09:50:34.236Z,5.05
2019-04-29T09:53:02.740Z,4.53
2019-04-29T09:55:31.485Z,4.20
2019-04-29T09:58:00.224Z,4.47
2019-04-29T10:00:40.847Z,4.87
2019-04-29T10:03:08.616Z,4.78
2019-04-29T10:05:41.353Z,4.72
2019-04-29T10:08:10.092Z,5.25
2019-04-29T10:10:38.837Z,4.62
2019-04-29T10:13:07.772Z,4.75
2019-04-29T10:15:38.161Z,4.37
2019-04-29T10:18:08.532Z,4.53
2019-04-29T10:20:41.842Z,4.62
2019-04-29T10:23:10.508Z,4.55
2019-04-29T10:25:39.190Z,4.83
2019-04-29T10:28:08.033Z,4.58
2019-04-29T10:30:36.780Z,5.22
2019-04-29T10:33:05.533Z,5.05
2019-04-29T10:35:34.273Z,4.03
2019-04-29T10:38:04.124Z,4.12
2019-04-29T10:40:40.096Z,4.45
2019-04-29T10:43:17.193Z,3.70
2019-04-29T10:45:59.769Z,4.00
2019-04-29T10:48:44.661Z,3.95
2019-04-29T10:51:15.081Z,3.77
2019-04-29T10:53:46.647Z,4.37
2019-04-29T10:56:14.504Z,3.67
2019-04-29T10:58:43.556Z,5.10
2019-04-29T11:01:29.171Z,3.30
2019-04-29T11:04:00.850Z,4.12
2019-04-29T11:06:26.778Z,4.00
2019-04-29T11:08:57.164Z,3.90
2019-04-29T11:11:27.656Z,4.42
2019-04-29T11:13:57.655Z,3.92
2019-04-29T11:16:29.498Z,3.90
2019-04-29T11:19:00.234Z,3.60
2019-04-29T11:21:29.547Z,4.00
2019-04-29T11:24:05.433Z,4.35
2019-04-29T11:26:35.813Z,4.03
2019-04-29T11:29:06.279Z,3.85
2019-04-29T11:31:36.410Z,4.42
2019-04-29T11:34:21.984Z,3.60
2019-04-29T11:36:50.656Z,3.85
2019-04-29T11:39:19.456Z,3.92
2019-04-29T11:41:50.048Z,3.80
2019-04-29T11:44:21.878Z,3.62
2019-04-29T11:46:50.597Z,3.55
2019-04-29T11:49:21.021Z,3.58
2019-04-29T11:52:08.403Z,4.15
2019-04-29T11:54:20.153Z,4.20
2019-04-29T11:56:48.901Z,4.50
2019-04-29T11:59:19.293Z,3.70
2019-04-29T12:01:51.698Z,4.10
2019-04-29T12:04:21.670Z,4.33
2019-04-29T12:06:51.348Z,3.60
2019-04-29T12:09:21.002Z,4.17
2019-04-29T12:11:49.698Z,3.92
2019-04-29T12:14:28.659Z,3.92
2019-04-29T12:17:14.844Z,4.17
2019-04-29T12:19:45.217Z,3.50
2019-04-29T12:22:26.871Z,3.67
2019-04-29T12:24:44.147Z,4.83
2019-04-29T12:27:14.795Z,3.60
2019-04-29T12:32:15.989Z,3.27
2019-04-29T12:35:02.084Z,3.10
2019-04-29T12:37:38.241Z,3.00
2019-04-29T12:40:18.717Z,4.37
2019-04-29T12:43:05.133Z,2.92
2019-04-29T12:45:38.273Z,4.22
2019-04-29T12:48:07.027Z,3.65
2019-04-29T12:50:35.692Z,3.80
2019-04-29T12:53:04.611Z,2.90
2019-04-29T12:55:44.291Z,3.20
2019-04-29T12:58:05.505Z,3.10
2019-04-29T13:00:47.246Z,3.05
2019-04-29T13:03:26.240Z,3.58
2019-04-29T13:06:05.020Z,3.62
2019-04-29T13:08:35.403Z,3.22
2019-04-29T13:11:05.897Z,3.42
2019-04-29T13:13:34.570Z,3.67
2019-04-29T13:16:10.732Z,3.55
2019-04-29T13:18:44.016Z,3.40
2019-04-29T13:21:12.773Z,3.30
2019-04-29T13:23:53.756Z,3.30
2019-04-29T13:26:11.770Z,3.37
2019-04-29T13:28:59.170Z,3.30
2019-04-29T13:31:10.796Z,3.30
2019-04-29T13:33:39.612Z,3.95
2019-04-29T13:36:08.532Z,3.72
2019-04-29T13:38:37.281Z,3.33
2019-04-29T13:41:13.450Z,3.87
2019-04-29T13:43:36.476Z,4.33
2019-04-29T13:46:09.850Z,3.45
2019-04-29T13:48:55.901Z,3.98
2019-04-29T13:51:35.660Z,3.92
2019-04-29T13:53:59.865Z,3.02
2019-04-29T13:56:39.361Z,3.08
2019-04-29T13:59:01.305Z,3.65
2019-04-29T14:01:58.283Z,3.77
2019-04-29T14:04:25.123Z,3.77
2019-04-29T14:06:56.932Z,3.33
2019-04-29T14:09:23.980Z,2.70
2019-04-29T14:12:01.786Z,3.67
2019-04-29T14:14:24.597Z,2.92
2019-04-29T14:17:11.521Z,3.50
2019-04-29T14:19:40.294Z,3.02
2019-04-29T14:21:54.252Z,3.50
2019-04-29T14:24:22.933Z,3.42
2019-04-29T14:26:51.684Z,3.00
2019-04-29T14:29:23.022Z,2.95
2019-04-29T14:31:54.115Z,2.95
2019-04-29T14:34:24.354Z,3.30
2019-04-29T14:36:57.461Z,2.67
2019-04-29T14:39:36.811Z,3.25
2019-04-29T14:41:56.413Z,3.47
2019-04-29T14:44:38.551Z,2.65
2019-04-29T14:47:11.605Z,2.77
2019-04-29T14:49:41.981Z,2.70
2019-04-29T14:52:13.343Z,2.35
2019-04-29T14:54:41.912Z,2.85
2019-04-29T14:57:11.563Z,3.60
2019-04-29T14:59:40.493Z,2.92
2019-04-29T15:02:16.222Z,2.65
2019-04-29T15:04:43.020Z,2.20
2019-04-29T15:07:11.806Z,2.40
2019-04-29T15:09:46.804Z,2.72
2019-04-29T15:12:17.098Z,2.60
2019-04-29T15:14:54.740Z,3.05
2019-04-29T15:17:45.011Z,2.77
2019-04-29T15:20:17.462Z,2.83
2019-04-29T15:22:46.133Z,2.95
2019-04-29T15:25:16.705Z,2.58
2019-04-29T15:27:45.173Z,2.98
2019-04-29T15:30:14.083Z,2.60
2019-04-29T15:32:42.746Z,2.80
2019-04-29T15:35:11.550Z,2.80
2019-04-29T15:37:40.282Z,2.92
2019-04-29T15:40:09.031Z,2.70
2019-04-29T15:42:42.132Z,2.60
2019-04-29T15:45:08.229Z,2.37
2019-04-29T15:47:36.991Z,2.77
2019-04-29T15:50:18.217Z,2.75
2019-04-29T15:52:37.563Z,2.80
2019-04-29T15:55:06.506Z,3.58
2019-04-29T15:57:35.326Z,2.75
2019-04-29T16:00:20.618Z,2.75
2019-04-29T16:02:41.394Z,3.10
2019-04-29T16:05:10.368Z,2.90
2019-04-29T16:07:46.551Z,3.17
2019-04-29T16:10:28.431Z,3.22
2019-04-29T16:12:58.810Z,3.05
2019-04-29T16:15:27.476Z,2.17
2019-04-29T16:17:56.195Z,2.40
2019-04-29T16:20:24.935Z,3.02
2019-04-29T16:22:54.257Z,2.90
2019-04-29T16:25:23.958Z,2.95
2019-04-29T16:27:53.471Z,3.37
2019-04-29T16:30:26.221Z,3.40
2019-04-29T16:32:53.270Z,3.77
2019-04-29T16:35:23.761Z,3.25
2019-04-29T16:37:52.380Z,3.02
2019-04-29T16:40:21.170Z,3.95
2019-04-29T16:42:54.509Z,3.62
2019-04-29T16:45:24.874Z,3.98
2019-04-29T16:47:53.610Z,3.45
2019-04-29T16:50:22.340Z,3.22
2019-04-29T16:52:50.999Z,2.65
2019-04-29T16:55:19.735Z,3.25
2019-04-29T16:57:48.463Z,3.50
2019-04-29T17:00:19.139Z,3.33
2019-04-29T17:02:47.962Z,3.52
2019-04-29T17:05:16.698Z,4.10
2019-04-29T17:07:45.494Z,3.85
2019-04-29T17:10:17.088Z,3.27
2019-04-29T17:12:47.367Z,3.75
2019-04-29T17:15:24.687Z,6.35
2019-04-29T17:17:46.581Z,6.37
2019-04-29T17:20:15.416Z,5.20
2019-04-29T17:22:44.800Z,6.47
2019-04-29T17:25:14.177Z,7.67
2019-04-29T17:27:47.235Z,13.43
2019-04-29T17:30:32.937Z,4.42
2019-04-29T17:33:05.127Z,5.45
2019-04-29T17:35:35.144Z,5.05
2019-04-29T17:38:03.875Z,5.10
2019-04-29T17:40:34.272Z,7.55
2019-04-29T17:43:04.952Z,7.25
2019-04-29T17:45:37.875Z,13.40
2019-04-29T17:48:18.338Z,10.82
2019-04-29T17:50:48.879Z,6.25
2019-04-29T17:53:19.689Z,9.95
2019-04-29T17:55:50.483Z,22.05
2019-04-29T17:58:20.857Z,7.20
2019-04-29T18:00:59.577Z,6.78
2019-04-29T18:03:46.029Z,5.60
2019-04-29T18:06:17.237Z,8.63
2019-04-29T18:08:51.174Z,4.65
2019-04-29T18:11:19.902Z,4.80
2019-04-29T18:13:48.587Z,5.03
2019-04-29T18:16:25.937Z,5.20
2019-04-29T18:18:58.576Z,5.72
2019-04-29T18:21:47.238Z,6.08
2019-04-29T18:24:15.986Z,5.92
2019-04-29T18:26:49.939Z,6.30
2019-04-29T18:29:19.874Z,5.42
2019-04-29T18:31:50.792Z,6.67
2019-04-29T18:34:19.678Z,8.15
2019-04-29T18:36:48.415Z,8.90
2019-04-29T18:39:25.078Z,9.98
2019-04-29T18:41:52.087Z,8.38
2019-04-29T18:44:20.747Z,9.75
2019-04-29T18:46:53.589Z,9.35
2019-04-29T18:49:19.801Z,9.15
2019-04-29T18:51:48.540Z,7.28
2019-04-29T18:54:17.270Z,7.45
2019-04-29T18:56:46.005Z,7.45
2019-04-29T18:59:18.215Z,7.80
2019-04-29T19:01:45.139Z,8.90
2019-04-29T19:04:17.380Z,8.18
2019-04-29T19:06:45.950Z,8.55
2019-04-29T19:09:19.976Z,9.43
2019-04-29T19:11:46.317Z,9.60
2019-04-29T19:14:15.195Z,10.72
2019-04-29T19:16:45.801Z,11.33
2019-04-29T19:19:15.399Z,12.03
2019-04-29T19:21:45.524Z,12.47
2019-04-29T19:24:16.189Z,12.40
2019-04-29T19:26:45.011Z,11.50
2019-04-29T19:29:15.505Z,11.08
2019-04-29T19:31:48.603Z,9.45
2019-04-29T19:34:18.507Z,9.90
2019-04-29T19:36:45.234Z,11.10
2019-04-29T19:39:17.101Z,9.90
2019-04-29T19:41:49.376Z,10.05
2019-04-29T19:44:15.513Z,8.78
2019-04-29T19:46:45.360Z,8.85
2019-04-29T19:49:15.754Z,8.78
2019-04-29T19:51:47.326Z,5.35
2019-04-29T19:54:16.991Z,5.50
2019-04-29T19:56:45.331Z,5.70
2019-04-29T19:59:17.165Z,4.97
2019-04-29T20:01:48.944Z,4.65
2019-04-29T20:04:21.802Z,4.72
2019-04-29T20:06:48.222Z,4.35
2019-04-29T20:09:22.751Z,3.02
2019-04-29T20:11:49.516Z,4.30
2019-04-29T20:14:25.494Z,4.80
2019-04-29T20:17:12.922Z,4.60
2019-04-29T20:19:50.742Z,3.92
2019-04-29T20:22:17.139Z,3.72
2019-04-29T20:24:49.625Z,4.45
2019-04-29T20:27:16.423Z,4.20
2019-04-29T20:29:45.809Z,4.00
2019-04-29T20:32:16.514Z,3.47
2019-04-29T20:34:46.111Z,3.95
2019-04-29T20:37:18.134Z,3.47
2019-04-29T20:39:45.728Z,3.60
2019-04-29T20:42:15.871Z,3.55
2019-04-29T20:44:48.663Z,3.92
2019-04-29T20:47:22.159Z,4.65
2019-04-29T20:49:45.507Z,4.53
2019-04-29T20:52:25.940Z,4.37
2019-04-29T20:55:00.793Z,4.12
2019-04-29T20:57:27.439Z,4.95
2019-04-29T20:59:55.512Z,4.53
2019-04-29T21:02:31.460Z,5.08
2019-04-29T21:04:55.862Z,5.70
2019-04-29T21:07:25.733Z,3.75
2019-04-29T21:09:55.897Z,4.15
2019-04-29T21:12:42.293Z,3.80
2019-04-29T21:15:27.406Z,3.92
2019-04-29T21:17:58.535Z,4.75
2019-04-29T21:20:26.484Z,3.70
2019-04-29T21:22:59.281Z,3.27
2019-04-29T21:25:29.379Z,4.00
2019-04-29T21:27:58.178Z,3.05
2019-04-29T21:30:35.007Z,3.40
2019-04-29T21:32:58.609Z,4.22
2019-04-29T21:35:28.942Z,4.35
2019-04-29T21:38:17.903Z,3.77
2019-04-29T21:40:53.202Z,3.75
2019-04-29T21:43:32.365Z,3.67
2019-04-29T21:46:01.103Z,4.20
2019-04-29T21:48:33.442Z,5.03
2019-04-29T21:51:00.138Z,3.70
2019-04-29T21:53:31.569Z,4.33
2019-04-29T21:55:59.688Z,4.33
2019-04-29T21:58:33.040Z,4.20
2019-04-29T22:01:00.493Z,4.20
2019-04-29T22:03:29.287Z,4.22
2019-04-29T22:06:00.234Z,3.95
2019-04-29T22:08:30.004Z,4.08
2019-04-29T22:11:04.814Z,4.50
2019-04-29T22:13:30.650Z,4.20
2019-04-29T22:15:59.902Z,4.42
2019-04-29T22:18:28.646Z,3.85
2019-04-29T22:20:57.375Z,4.42
2019-04-29T22:23:26.105Z,4.95
2019-04-29T22:25:56.672Z,4.33
2019-04-29T22:28:25.203Z,3.22
2019-04-29T22:30:54.953Z,4.22
2019-04-29T22:33:25.275Z,4.25
2019-04-29T22:35:55.454Z,4.85
2019-04-29T22:38:24.959Z,4.65
2019-04-29T22:40:55.179Z,4.08
2019-04-29T22:43:36.009Z,4.40
2019-04-29T22:46:09.277Z,5.22
2019-04-29T22:48:35.192Z,4.33
2019-04-29T22:51:05.772Z,4.30
2019-04-29T22:53:35.858Z,3.67
2019-04-29T22:56:08.871Z,5.42
2019-04-29T22:58:35.187Z,4.60
2019-04-29T23:01:06.850Z,4.08
2019-04-29T23:03:37.512Z,4.35
2019-04-29T23:06:08.291Z,3.42
2019-04-29T23:08:38.040Z,4.33
2019-04-29T23:11:05.618Z,3.75
2019-04-29T23:13:35.489Z,4.20
2019-04-29T23:16:04.794Z,4.15
2019-04-29T23:18:41.865Z,4.17
2019-04-29T23:21:17.609Z,3.47
2019-04-29T23:23:47.984Z,5.12
2019-04-29T23:26:16.916Z,4.53
2019-04-29T23:28:45.842Z,4.28
2019-04-29T23:31:14.573Z,4.30
2019-04-29T23:33:43.231Z,3.90
2019-04-29T23:36:14.209Z,4.53
2019-04-29T23:38:42.765Z,4.15
2019-04-29T23:41:12.781Z,4.10
2019-04-29T23:43:41.505Z,4.22
2019-04-29T23:46:10.225Z,4.05
2019-04-29T23:48:39.740Z,4.35
2019-04-29T23:51:08.508Z,4.40
2019-04-29T23:53:37.231Z,4.25
2019-04-29T23:56:09.681Z,3.80
2019-04-29T23:58:38.698Z,3.05
